Time;durP1;ratioP1;P1;durP2;ratioP2;P2;SDS_P1;SDS_P2;PMS_P1;PMS_P2;Temp;Humidity;BMP_temperature;BMP_pressure;BME280_temperature;BME280_humidity;BME280_pressure;Samples;Min_cycle;Max_cycle;Signal;HPM_P1;HPM_P2
2021/04/09 00:02:03;;;;;;;19.52;8.73;;;0.10;99.90;;;;;;4951946;28;20047;-71
2021/04/09 00:04:30;;;;;;;18.42;8.85;;;0.10;99.90;;;;;;4935170;29;20043;-71
2021/04/09 00:06:56;;;;;;;17.60;8.25;;;0.10;99.90;;;;;;4951237;28;20048;-71
2021/04/09 00:09:23;;;;;;;17.88;8.55;;;0.10;99.90;;;;;;4952768;28;20145;-71
2021/04/09 00:11:50;;;;;;;17.70;8.48;;;0.00;99.90;;;;;;4935484;29;20176;-71
2021/04/09 00:14:16;;;;;;;18.15;8.88;;;0.00;99.90;;;;;;4952951;29;20315;-71
2021/04/09 00:16:43;;;;;;;23.52;9.00;;;0.00;99.90;;;;;;4935072;29;20054;-71
2021/04/09 00:19:14;;;;;;;15.48;8.23;;;0.00;99.90;;;;;;4953367;29;20047;-71
2021/04/09 00:21:42;;;;;;;16.50;7.78;;;0.00;99.90;;;;;;4952535;29;20130;-71
2021/04/09 00:24:10;;;;;;;17.02;7.90;;;0.00;99.90;;;;;;4952357;29;20051;-71
2021/04/09 00:26:37;;;;;;;17.30;8.25;;;0.10;99.90;;;;;;4951009;28;20515;-71
2021/04/09 00:29:04;;;;;;;18.20;8.70;;;0.10;99.90;;;;;;4951878;29;20135;-71
2021/04/09 00:31:32;;;;;;;13.52;8.02;;;0.10;99.90;;;;;;4935068;29;20276;-72
2021/04/09 00:33:59;;;;;;;16.83;8.35;;;0.00;99.90;;;;;;4952349;29;20042;-72
2021/04/09 00:36:25;;;;;;;15.80;7.38;;;-0.10;99.90;;;;;;4951157;28;20051;-72
2021/04/09 00:38:52;;;;;;;14.05;6.80;;;0.00;99.90;;;;;;4951886;29;20186;-72
2021/04/09 00:41:27;;;;;;;20.52;8.88;;;0.00;99.90;;;;;;4951752;29;20074;-72
2021/04/09 00:43:53;;;;;;;17.65;7.93;;;0.00;99.90;;;;;;4934342;29;20046;-72
2021/04/09 00:46:21;;;;;;;21.45;9.50;;;-0.10;99.90;;;;;;4934908;29;20047;-72
2021/04/09 00:48:48;;;;;;;16.10;8.13;;;-0.10;99.90;;;;;;4950148;28;20504;-71
2021/04/09 00:51:15;;;;;;;20.77;10.13;;;0.00;99.90;;;;;;4952065;29;20142;-72
2021/04/09 00:53:43;;;;;;;19.00;8.35;;;-0.10;99.90;;;;;;4934646;29;20464;-72
2021/04/09 00:56:14;;;;;;;18.00;8.93;;;-0.10;99.90;;;;;;4951476;28;20148;-72
2021/04/09 00:58:41;;;;;;;15.00;7.22;;;-0.10;99.90;;;;;;4951795;29;20122;-72
2021/04/09 01:01:07;;;;;;;16.17;7.63;;;-0.10;99.90;;;;;;4951445;28;20102;-72
2021/04/09 01:03:34;;;;;;;14.27;7.32;;;-0.10;99.90;;;;;;4934679;29;20414;-72
2021/04/09 01:06:02;;;;;;;17.10;7.25;;;-0.10;99.90;;;;;;4934759;29;20049;-72
2021/04/09 01:08:29;;;;;;;14.45;6.80;;;-0.20;99.90;;;;;;4951867;29;20040;-72
2021/04/09 01:10:57;;;;;;;13.40;6.78;;;-0.20;99.90;;;;;;4951285;29;20059;-72
2021/04/09 01:13:24;;;;;;;12.35;7.25;;;-0.20;99.90;;;;;;4951216;29;20055;-71
2021/04/09 01:15:51;;;;;;;15.55;7.60;;;-0.20;99.90;;;;;;4951729;28;20046;-72
2021/04/09 01:18:33;;;;;;;15.82;8.18;;;-0.20;99.90;;;;;;4950319;28;20047;-72
2021/04/09 01:21:42;;;;;;;13.98;7.35;;;-0.20;99.90;;;;;;4950944;29;20107;-72
2021/04/09 01:24:30;;;;;;;16.88;7.07;;;-0.20;99.90;;;;;;4923672;29;20114;-71
2021/04/09 01:27:28;;;;;;;15.15;7.60;;;-0.40;99.90;;;;;;4949621;28;20050;-72
2021/04/09 01:30:22;;;;;;;13.07;7.35;;;-0.40;99.90;;;;;;4935138;29;20143;-72
2021/04/09 01:32:51;;;;;;;14.35;7.60;;;-0.40;99.90;;;;;;4933407;29;20047;-71
2021/04/09 01:35:19;;;;;;;18.13;7.63;;;-0.40;99.90;;;;;;4934226;29;20039;-71
2021/04/09 01:38:07;;;;;;;16.00;7.47;;;-0.50;99.90;;;;;;4951608;28;20062;-71
2021/04/09 01:40:41;;;;;;;12.93;6.72;;;-0.50;99.90;;;;;;4951124;29;20495;-71
2021/04/09 01:43:12;;;;;;;13.20;7.10;;;-0.50;99.90;;;;;;4951534;29;20408;-71
2021/04/09 01:45:38;;;;;;;15.73;7.55;;;-0.50;99.90;;;;;;4933665;29;20051;-70
2021/04/09 01:48:09;;;;;;;12.68;6.90;;;-0.40;99.90;;;;;;4951713;29;20158;-71
2021/04/09 01:50:37;;;;;;;14.27;7.18;;;-0.40;99.90;;;;;;4934024;29;20073;-71
2021/04/09 01:53:05;;;;;;;15.15;6.90;;;-0.40;99.90;;;;;;4950130;29;20150;-70
2021/04/09 01:55:35;;;;;;;19.70;7.60;;;-0.40;99.90;;;;;;4955010;28;20105;-71
2021/04/09 01:58:02;;;;;;;16.63;7.22;;;-0.40;99.90;;;;;;4954868;29;20385;-70
2021/04/09 02:00:31;;;;;;;15.68;7.72;;;-0.40;99.90;;;;;;4954662;29;20043;-71
2021/04/09 02:02:59;;;;;;;14.52;6.95;;;-0.30;99.90;;;;;;4937134;29;20499;-71
2021/04/09 02:05:28;;;;;;;16.75;7.22;;;-0.30;99.90;;;;;;4937213;29;20071;-71
2021/04/09 02:07:58;;;;;;;13.75;6.57;;;-0.30;99.90;;;;;;4937397;29;20051;-71
2021/04/09 02:10:26;;;;;;;13.77;7.15;;;-0.30;99.90;;;;;;4954712;29;20343;-71
2021/04/09 02:12:54;;;;;;;15.45;6.28;;;-0.30;99.90;;;;;;4954850;29;20051;-71
2021/04/09 02:15:23;;;;;;;15.23;7.15;;;-0.30;99.90;;;;;;4955050;28;20062;-72
2021/04/09 02:17:50;;;;;;;14.13;6.13;;;-0.30;99.90;;;;;;4953953;28;20039;-71
2021/04/09 02:20:21;;;;;;;14.15;5.65;;;-0.30;99.90;;;;;;4954347;29;20046;-72
2021/04/09 02:22:49;;;;;;;16.00;6.57;;;-0.30;99.90;;;;;;4953957;29;20051;-70
2021/04/09 02:25:18;;;;;;;14.93;7.25;;;-0.30;99.90;;;;;;4954952;28;20050;-71
2021/04/09 02:27:47;;;;;;;14.15;7.15;;;-0.30;99.90;;;;;;4954342;29;20058;-71
2021/04/09 02:30:15;;;;;;;13.18;6.13;;;-0.30;99.90;;;;;;4954443;29;20143;-71
2021/04/09 02:32:42;;;;;;;17.02;8.48;;;-0.40;99.90;;;;;;4937031;29;20075;-71
2021/04/09 02:35:11;;;;;;;16.38;7.40;;;-0.40;99.90;;;;;;4953083;28;20043;-70
2021/04/09 02:37:40;;;;;;;14.63;8.13;;;-0.40;99.90;;;;;;4936923;29;20193;-71
2021/04/09 02:40:12;;;;;;;12.93;6.55;;;-0.40;99.90;;;;;;4954670;29;20043;-71
2021/04/09 02:42:39;;;;;;;13.57;6.80;;;-0.50;99.90;;;;;;4952947;29;20102;-71
2021/04/09 02:45:08;;;;;;;18.10;6.57;;;-0.40;99.90;;;;;;4953587;28;20059;-71
2021/04/09 02:47:37;;;;;;;12.20;6.75;;;-0.40;99.90;;;;;;4952377;29;20055;-71
2021/04/09 02:50:23;;;;;;;19.02;6.72;;;-0.30;99.90;;;;;;4954106;29;20054;-71
2021/04/09 02:52:53;;;;;;;13.85;6.45;;;-0.30;99.90;;;;;;4926725;29;20043;-71
2021/04/09 02:55:30;;;;;;;14.77;6.28;;;-0.30;99.90;;;;;;4936941;29;20043;-71
2021/04/09 02:57:59;;;;;;;14.07;5.90;;;-0.30;99.90;;;;;;4936975;29;20110;-71
2021/04/09 03:00:26;;;;;;;11.23;6.70;;;-0.30;99.90;;;;;;4954057;29;20058;-71
2021/04/09 03:02:53;;;;;;;14.00;7.10;;;-0.30;99.90;;;;;;4957411;28;20547;-71
2021/04/09 03:05:23;;;;;;;12.48;6.57;;;-0.30;99.90;;;;;;4953610;28;20053;-71
2021/04/09 03:07:50;;;;;;;15.35;6.22;;;-0.30;99.90;;;;;;4937169;29;20154;-70
2021/04/09 03:10:18;;;;;;;12.90;6.55;;;-0.40;99.90;;;;;;4951769;29;20121;-71
2021/04/09 03:12:44;;;;;;;17.73;6.70;;;-0.40;99.90;;;;;;4952380;28;20051;-71
2021/04/09 03:15:21;;;;;;;16.48;6.78;;;-0.40;99.90;;;;;;4953707;28;20098;-71
2021/04/09 03:18:03;;;;;;;16.05;7.28;;;-0.40;99.90;;;;;;4951713;29;20079;-71
2021/04/09 03:20:30;;;;;;;14.70;7.53;;;-0.50;99.90;;;;;;4953820;29;20086;-71
2021/04/09 03:22:58;;;;;;;16.15;8.05;;;-0.60;99.90;;;;;;4952027;29;20523;-71
2021/04/09 03:25:24;;;;;;;20.38;8.88;;;-0.60;99.90;;;;;;4953625;28;20051;-71
2021/04/09 03:27:53;;;;;;;19.42;7.53;;;-0.60;99.90;;;;;;4952326;29;20496;-71
2021/04/09 03:30:20;;;;;;;22.45;9.10;;;-0.70;99.90;;;;;;4953320;29;20055;-71
2021/04/09 03:32:47;;;;;;;17.30;8.18;;;-0.80;99.90;;;;;;4953131;28;20066;-71
2021/04/09 03:35:15;;;;;;;17.05;8.68;;;-0.80;99.90;;;;;;4948673;28;20138;-71
2021/04/09 03:37:41;;;;;;;13.07;5.90;;;-0.80;99.90;;;;;;4949391;29;20070;-71
2021/04/09 03:40:09;;;;;;;15.75;6.47;;;-0.90;99.90;;;;;;4951846;29;20050;-71
2021/04/09 03:42:35;;;;;;;21.73;6.40;;;-1.00;99.90;;;;;;4952849;29;20110;-71
2021/04/09 03:45:04;;;;;;;17.85;6.13;;;-1.10;99.90;;;;;;4952710;28;20046;-71
2021/04/09 03:47:31;;;;;;;11.80;5.93;;;-1.10;99.90;;;;;;4952746;29;20259;-71
2021/04/09 03:49:57;;;;;;;12.38;6.00;;;-1.20;99.90;;;;;;4950599;29;20055;-71
2021/04/09 03:52:24;;;;;;;12.23;6.30;;;-1.10;99.90;;;;;;4934797;29;20047;-71
2021/04/09 03:54:51;;;;;;;12.70;5.72;;;-1.00;99.90;;;;;;4951658;28;20124;-70
2021/04/09 03:57:17;;;;;;;12.02;6.60;;;-1.10;99.90;;;;;;4953030;29;20094;-71
2021/04/09 03:59:44;;;;;;;12.10;6.03;;;-1.10;99.90;;;;;;4953091;29;20380;-70
2021/04/09 04:02:10;;;;;;;14.40;5.85;;;-1.10;99.90;;;;;;4951737;28;20035;-70
2021/04/09 04:04:37;;;;;;;13.98;6.78;;;-1.20;99.90;;;;;;4952370;29;20050;-70
2021/04/09 04:07:04;;;;;;;11.57;5.53;;;-1.20;99.90;;;;;;4951309;29;20102;-70
2021/04/09 04:09:31;;;;;;;15.38;6.57;;;-1.30;99.90;;;;;;4951760;29;20055;-70
2021/04/09 04:11:58;;;;;;;11.75;5.63;;;-1.20;99.90;;;;;;4950771;29;20087;-70
2021/04/09 04:14:25;;;;;;;12.87;5.37;;;-1.10;99.90;;;;;;4951966;29;20102;-70
2021/04/09 04:16:51;;;;;;;13.43;6.18;;;-1.00;99.90;;;;;;4951858;28;20108;-71
2021/04/09 04:19:18;;;;;;;10.75;6.07;;;-0.90;99.90;;;;;;4951615;29;20045;-71
2021/04/09 04:21:45;;;;;;;12.80;6.28;;;-0.90;99.90;;;;;;4934760;29;20078;-71
2021/04/09 04:24:11;;;;;;;13.52;5.93;;;-0.90;99.90;;;;;;4952181;29;20100;-71
2021/04/09 04:26:38;;;;;;;14.60;6.57;;;-0.90;99.90;;;;;;4952355;28;20488;-71
2021/04/09 04:29:05;;;;;;;10.40;5.72;;;-0.90;99.90;;;;;;4947830;29;20054;-71
2021/04/09 04:31:31;;;;;;;12.77;6.03;;;-0.90;99.90;;;;;;4950060;29;20066;-71
2021/04/09 04:33:58;;;;;;;12.20;6.63;;;-0.80;99.90;;;;;;4934447;29;20047;-71
2021/04/09 04:36:24;;;;;;;13.13;6.22;;;-0.80;99.90;;;;;;4952269;28;20146;-71
2021/04/09 04:38:51;;;;;;;14.63;6.47;;;-0.80;99.90;;;;;;4952099;29;20043;-71
2021/04/09 04:41:19;;;;;;;12.52;6.60;;;-0.80;99.90;;;;;;4950121;28;20039;-71
2021/04/09 04:43:45;;;;;;;12.13;5.70;;;-0.80;99.90;;;;;;4950849;29;20452;-71
2021/04/09 04:46:12;;;;;;;13.68;5.60;;;-0.90;99.90;;;;;;4933691;29;20082;-71
2021/04/09 04:48:38;;;;;;;11.93;6.35;;;-0.90;99.90;;;;;;4934653;29;20047;-71
2021/04/09 04:51:06;;;;;;;14.30;6.57;;;-0.80;99.90;;;;;;4951793;29;20120;-72
2021/04/09 04:53:33;;;;;;;10.73;5.70;;;-0.70;99.90;;;;;;4951145;29;20135;-71
2021/04/09 04:55:59;;;;;;;11.43;6.30;;;-0.70;99.90;;;;;;4951532;28;20047;-71
2021/04/09 04:58:25;;;;;;;11.55;5.90;;;-0.60;99.90;;;;;;4951598;29;20519;-71
2021/04/09 05:00:52;;;;;;;14.93;5.25;;;-0.60;99.90;;;;;;4950999;29;20051;-71
2021/04/09 05:03:18;;;;;;;16.80;6.10;;;-0.60;99.90;;;;;;4934196;29;20051;-71
2021/04/09 05:05:44;;;;;;;14.25;6.38;;;-0.50;99.90;;;;;;4933688;29;20058;-72
2021/04/09 05:08:11;;;;;;;15.50;6.47;;;-0.50;99.90;;;;;;4950090;28;20169;-72
2021/04/09 05:10:37;;;;;;;13.10;6.00;;;-0.50;99.90;;;;;;4944256;29;20481;-72
2021/04/09 05:13:03;;;;;;;17.65;6.40;;;-0.40;99.90;;;;;;4944919;29;20435;-72
2021/04/09 05:15:30;;;;;;;13.52;6.72;;;-0.30;99.90;;;;;;4950114;28;20201;-72
2021/04/09 05:17:56;;;;;;;21.33;7.32;;;-0.30;99.90;;;;;;4951151;28;20051;-71
2021/04/09 05:20:25;;;;;;;18.02;8.43;;;-0.30;99.90;;;;;;4951190;29;20105;-71
2021/04/09 05:22:52;;;;;;;19.17;8.32;;;-0.30;99.90;;;;;;4951869;28;20515;-71
2021/04/09 05:25:18;;;;;;;19.33;8.52;;;-0.30;99.90;;;;;;4933641;29;20062;-71
2021/04/09 05:27:49;;;;;;;22.08;9.48;;;-0.40;99.90;;;;;;4951188;29;20061;-71
2021/04/09 05:30:16;;;;;;;28.85;11.65;;;-0.40;99.90;;;;;;4955459;29;20065;-71
2021/04/09 05:32:42;;;;;;;31.77;11.15;;;-0.40;99.90;;;;;;4955156;29;20066;-71
2021/04/09 05:35:10;;;;;;;21.30;10.40;;;-0.30;99.90;;;;;;4937616;29;20130;-71
2021/04/09 05:37:36;;;;;;;18.80;9.35;;;-0.20;99.90;;;;;;4938050;29;20252;-71
2021/04/09 05:40:04;;;;;;;18.45;8.45;;;-0.10;99.90;;;;;;4955193;29;20082;-72
2021/04/09 05:42:30;;;;;;;15.45;8.00;;;0.00;99.90;;;;;;4937208;29;20055;-71
2021/04/09 05:44:57;;;;;;;17.15;9.40;;;0.10;99.90;;;;;;4954948;28;20055;-70
2021/04/09 05:47:25;;;;;;;18.23;10.55;;;0.20;99.90;;;;;;4954529;29;20110;-71
2021/04/09 05:49:51;;;;;;;20.02;12.77;;;0.10;99.90;;;;;;4953983;28;20110;-71
2021/04/09 05:52:18;;;;;;;20.27;9.02;;;0.20;99.90;;;;;;4937027;29;20081;-71
2021/04/09 05:54:45;;;;;;;15.90;7.53;;;0.30;99.90;;;;;;4955319;28;20059;-71
2021/04/09 05:57:11;;;;;;;15.93;9.02;;;0.30;99.90;;;;;;4937939;29;20058;-71
2021/04/09 05:59:37;;;;;;;17.83;8.02;;;0.50;99.90;;;;;;4954647;28;20066;-71
2021/04/09 06:02:05;;;;;;;18.38;9.18;;;0.50;99.90;;;;;;4939067;28;20062;-71
2021/04/09 06:04:31;;;;;;;13.95;8.68;;;0.60;99.90;;;;;;4939378;28;20570;-71
2021/04/09 06:06:58;;;;;;;12.73;7.50;;;0.70;99.90;;;;;;4955627;28;20519;-71
2021/04/09 06:09:25;;;;;;;19.10;7.40;;;0.80;99.90;;;;;;4955409;29;20043;-71
2021/04/09 06:11:52;;;;;;;16.52;8.32;;;0.80;99.90;;;;;;4954981;29;20047;-71
2021/04/09 06:14:19;;;;;;;19.75;10.45;;;0.90;99.90;;;;;;4937115;29;20047;-71
2021/04/09 06:16:46;;;;;;;19.33;9.52;;;0.90;99.90;;;;;;4936875;29;20452;-71
2021/04/09 06:19:12;;;;;;;20.67;8.77;;;0.90;99.90;;;;;;4937189;29;20496;-71
2021/04/09 06:21:39;;;;;;;17.45;8.95;;;0.80;99.90;;;;;;4954096;29;20043;-70
2021/04/09 06:24:06;;;;;;;23.52;11.35;;;0.80;99.90;;;;;;4954975;29;20094;-71
2021/04/09 06:26:33;;;;;;;25.63;10.07;;;0.90;99.90;;;;;;4954900;28;20058;-71
2021/04/09 06:28:59;;;;;;;23.08;9.88;;;1.20;99.90;;;;;;4936403;29;20385;-71
2021/04/09 06:31:26;;;;;;;20.13;10.57;;;1.40;99.90;;;;;;4954587;29;20043;-71
2021/04/09 06:33:55;;;;;;;22.30;9.52;;;1.60;99.90;;;;;;4953955;29;20050;-71
2021/04/09 06:36:21;;;;;;;23.05;9.80;;;1.70;99.90;;;;;;4947464;28;20043;-70
2021/04/09 06:38:48;;;;;;;19.65;9.10;;;1.90;99.90;;;;;;4954006;29;20044;-71
2021/04/09 06:41:15;;;;;;;20.30;8.82;;;2.00;99.90;;;;;;4951928;28;20176;-70
2021/04/09 06:43:41;;;;;;;19.92;9.63;;;2.30;99.90;;;;;;4935338;28;20448;-70
2021/04/09 06:46:08;;;;;;;15.05;6.78;;;2.60;99.90;;;;;;4953005;28;20079;-71
2021/04/09 06:48:35;;;;;;;9.38;5.20;;;3.00;99.90;;;;;;4953108;28;20127;-70
2021/04/09 06:51:02;;;;;;;7.18;3.47;;;3.50;99.90;;;;;;4951885;28;20412;-70
2021/04/09 06:53:31;;;;;;;11.32;4.05;;;4.20;99.90;;;;;;4953797;28;20057;-71
2021/04/09 06:55:59;;;;;;;11.20;3.35;;;4.50;99.90;;;;;;4953769;28;20453;-71
2021/04/09 06:58:26;;;;;;;8.57;3.63;;;5.00;99.90;;;;;;4935770;29;20054;-71
2021/04/09 07:00:56;;;;;;;8.02;3.03;;;5.30;99.90;;;;;;4954645;28;20094;-71
2021/04/09 07:03:23;;;;;;;7.88;3.00;;;5.50;99.90;;;;;;4953191;29;20035;-72
2021/04/09 07:05:49;;;;;;;9.35;3.72;;;5.70;99.90;;;;;;4951159;28;20062;-71
2021/04/09 07:08:16;;;;;;;6.78;2.70;;;5.80;99.90;;;;;;4943060;29;20456;-71
2021/04/09 07:10:42;;;;;;;8.27;2.67;;;5.90;99.90;;;;;;4953894;29;20546;-71
2021/04/09 07:13:10;;;;;;;8.65;3.45;;;6.10;99.90;;;;;;4935527;29;20051;-71
2021/04/09 07:15:42;;;;;;;10.85;3.83;;;6.10;99.90;;;;;;4953891;28;20385;-70
2021/04/09 07:18:09;;;;;;;13.45;3.95;;;6.10;99.90;;;;;;4936458;29;20051;-71
2021/04/09 07:20:38;;;;;;;7.28;2.83;;;6.20;99.90;;;;;;4953603;28;20043;-71
2021/04/09 07:23:07;;;;;;;10.48;3.00;;;6.00;99.90;;;;;;4935616;29;20062;-70
2021/04/09 07:25:37;;;;;;;9.63;3.83;;;6.00;99.90;;;;;;4954058;29;20062;-70
2021/04/09 07:28:16;;;;;;;9.98;3.20;;;6.10;99.90;;;;;;4953928;28;20047;-71
2021/04/09 07:30:51;;;;;;;9.73;3.22;;;6.10;99.90;;;;;;4936440;29;20058;-71
2021/04/09 07:33:22;;;;;;;7.93;2.75;;;6.20;99.90;;;;;;4953789;29;20050;-71
2021/04/09 07:35:54;;;;;;;12.55;3.42;;;6.30;99.90;;;;;;4936419;29;20091;-70
2021/04/09 07:38:26;;;;;;;8.70;3.75;;;6.40;99.90;;;;;;4953113;28;20380;-70
2021/04/09 07:41:02;;;;;;;8.93;3.53;;;6.50;99.90;;;;;;4953826;29;20054;-70
2021/04/09 07:43:33;;;;;;;13.23;3.92;;;6.60;99.90;;;;;;4952645;28;20036;-71
2021/04/09 07:46:02;;;;;;;9.90;3.35;;;6.80;99.90;;;;;;4945948;28;20051;-70
2021/04/09 07:48:32;;;;;;;11.30;2.42;;;6.90;99.90;;;;;;4951783;29;20807;-70
2021/04/09 07:51:00;;;;;;;8.05;2.83;;;7.00;99.90;;;;;;4940972;29;20047;-71
2021/04/09 07:53:29;;;;;;;9.65;3.53;;;7.20;99.90;;;;;;4952985;29;20059;-71
2021/04/09 07:56:04;;;;;;;13.98;3.97;;;7.30;99.90;;;;;;4953336;28;20075;-71
2021/04/09 07:58:30;;;;;;;11.02;3.03;;;7.50;99.90;;;;;;4951840;29;20048;-71
2021/04/09 08:00:56;;;;;;;17.95;3.53;;;7.50;99.90;;;;;;4952445;28;20323;-71
2021/04/09 08:03:39;;;;;;;11.13;3.40;;;7.70;99.90;;;;;;4953427;28;20421;-71
2021/04/09 08:06:20;;;;;;;9.23;3.08;;;8.00;99.90;;;;;;4935507;29;20047;-71
2021/04/09 08:08:47;;;;;;;13.95;3.28;;;8.10;99.90;;;;;;4951452;28;20094;-71
2021/04/09 08:11:34;;;;;;;10.50;3.10;;;8.50;99.90;;;;;;4951182;29;20039;-71
2021/04/09 08:14:10;;;;;;;9.82;3.40;;;8.80;99.90;;;;;;4937243;29;20058;-71
2021/04/09 08:16:44;;;;;;;8.57;3.67;;;8.80;99.90;;;;;;4945480;28;20397;-71
2021/04/09 08:19:12;;;;;;;8.95;3.28;;;9.00;99.90;;;;;;4950115;29;20047;-71
2021/04/09 08:21:53;;;;;;;14.27;3.47;;;9.60;99.90;;;;;;4970545;28;20109;-71
2021/04/09 08:24:26;;;;;;;11.30;3.13;;;9.20;99.90;;;;;;4916274;29;20476;-72
2021/04/09 08:26:53;;;;;;;13.00;3.53;;;9.50;99.90;;;;;;4919078;29;20059;-71
2021/04/09 08:29:21;;;;;;;8.88;3.38;;;9.70;99.90;;;;;;4938660;29;20051;-71
2021/04/09 08:31:48;;;;;;;9.98;2.83;;;9.70;99.90;;;;;;4952632;29;20043;-71
2021/04/09 08:34:20;;;;;;;9.63;2.97;;;10.10;99.90;;;;;;4951638;29;20492;-71
2021/04/09 08:36:47;;;;;;;8.05;2.95;;;10.30;99.90;;;;;;4952035;29;20400;-71
2021/04/09 08:39:28;;;;;;;11.90;3.72;;;10.10;99.90;;;;;;4961246;28;20051;-71
2021/04/09 08:41:57;;;;;;;7.53;2.75;;;9.80;99.90;;;;;;4971302;28;20053;-71
2021/04/09 08:44:24;;;;;;;8.25;2.55;;;9.60;99.90;;;;;;4962767;28;20039;-70
2021/04/09 08:46:50;;;;;;;9.00;2.42;;;9.40;99.90;;;;;;4951311;28;20039;-71
2021/04/09 08:49:20;;;;;;;8.55;3.00;;;9.50;99.90;;;;;;4951915;28;20461;-71
2021/04/09 08:51:48;;;;;;;8.27;2.85;;;10.00;99.90;;;;;;4951309;29;20062;-71
2021/04/09 08:54:22;;;;;;;10.88;2.88;;;10.40;99.90;;;;;;4934539;29;20062;-71
2021/04/09 08:56:49;;;;;;;8.18;2.90;;;10.50;99.90;;;;;;4951693;28;20043;-71
2021/04/09 08:59:38;;;;;;;13.20;3.28;;;10.80;99.90;;;;;;4951813;28;20044;-71
2021/04/09 09:02:14;;;;;;;5.07;2.50;;;10.90;99.90;;;;;;4948713;28;20039;-71
2021/04/09 09:04:57;;;;;;;9.05;3.22;;;10.40;99.90;;;;;;4951367;28;20066;-72
2021/04/09 09:07:43;;;;;;;7.47;3.30;;;10.90;99.90;;;;;;4951140;29;20042;-71
2021/04/09 09:10:31;;;;;;;6.75;2.85;;;10.80;99.90;;;;;;4948358;29;20043;-71
2021/04/09 09:13:07;;;;;;;9.35;3.13;;;11.10;99.90;;;;;;4956006;28;20050;-71
2021/04/09 09:15:43;;;;;;;10.70;3.30;;;11.10;99.90;;;;;;4950081;28;20043;-71
2021/04/09 09:18:22;;;;;;;9.20;2.78;;;11.00;99.90;;;;;;4934778;29;20051;-71
2021/04/09 09:21:09;;;;;;;9.50;2.75;;;11.30;99.90;;;;;;4951863;29;20051;-70
2021/04/09 09:23:51;;;;;;;7.32;2.63;;;11.00;99.90;;;;;;4951037;29;20055;-71
2021/04/09 09:26:32;;;;;;;6.70;2.20;;;11.10;99.90;;;;;;4950358;29;20148;-71
2021/04/09 09:29:17;;;;;;;7.60;3.08;;;10.90;99.90;;;;;;4948708;28;20063;-70
2021/04/09 09:31:49;;;;;;;9.60;2.95;;;11.20;99.90;;;;;;4954873;28;20115;-71
2021/04/09 09:34:18;;;;;;;7.68;3.22;;;11.30;99.90;;;;;;4949709;28;20039;-70
2021/04/09 09:37:00;;;;;;;9.02;2.90;;;11.70;99.90;;;;;;4951097;28;20040;-69
2021/04/09 09:39:46;;;;;;;7.22;2.85;;;11.60;99.90;;;;;;4950872;29;20062;-71
2021/04/09 09:42:25;;;;;;;7.18;2.63;;;11.10;99.90;;;;;;4952612;28;20497;-72
2021/04/09 09:45:00;;;;;;;8.32;3.38;;;10.90;99.90;;;;;;4938942;28;20503;-72
2021/04/09 09:47:31;;;;;;;11.38;3.22;;;11.40;99.90;;;;;;4970568;28;20101;-71
2021/04/09 09:50:04;;;;;;;8.02;3.05;;;12.10;99.90;;;;;;4956594;28;20043;-72
2021/04/09 09:53:03;;;;;;;10.75;3.15;;;12.30;98.30;;;;;;4951393;28;20306;-72
2021/04/09 09:55:44;;;;;;;7.55;2.75;;;12.10;99.00;;;;;;4951270;28;20043;-72
2021/04/09 09:58:27;;;;;;;12.18;3.42;;;12.20;98.60;;;;;;4964987;28;20114;-71
2021/04/09 10:01:04;;;;;;;;;;;12.50;97.00;;;;;;4951994;28;20066;-71
2021/04/09 10:03:38;;;;;;;6.55;2.72;;;13.00;96.90;;;;;;4949959;29;19927;-71
2021/04/09 10:06:12;;;;;;;8.88;3.30;;;12.90;96.30;;;;;;4951439;28;20110;-71
2021/04/09 10:08:58;;;;;;;6.97;3.17;;;13.00;93.90;;;;;;4950786;29;20058;-72
2021/04/09 10:11:25;;;;;;;9.07;3.42;;;12.60;94.90;;;;;;4953331;28;20043;-72
2021/04/09 10:13:52;;;;;;;7.22;3.20;;;12.90;94.80;;;;;;4931988;29;20404;-72
2021/04/09 10:16:20;;;;;;;9.85;3.15;;;12.90;93.90;;;;;;4953064;28;20059;-71
2021/04/09 10:18:54;;;;;;;10.32;3.10;;;12.80;94.60;;;;;;4955242;29;20122;-72
2021/04/09 10:21:22;;;;;;;12.38;3.47;;;13.00;94.50;;;;;;4954789;29;20047;-71
2021/04/09 10:24:10;;;;;;;6.53;2.65;;;12.90;94.50;;;;;;4937706;29;20079;-71
2021/04/09 10:26:42;;;;;;;5.60;2.45;;;13.00;93.20;;;;;;4954148;28;20150;-71
2021/04/09 10:29:35;;;;;;;10.65;3.45;;;13.20;92.40;;;;;;4955658;28;20464;-71
2021/04/09 10:32:02;;;;;;;10.13;2.90;;;13.40;91.90;;;;;;4938127;29;20113;-72
2021/04/09 10:34:32;;;;;;;7.40;2.75;;;13.70;91.80;;;;;;4951554;29;20047;-71
2021/04/09 10:37:04;;;;;;;6.82;2.80;;;13.80;91.20;;;;;;4937119;29;20558;-72
2021/04/09 10:39:31;;;;;;;6.18;2.90;;;14.50;89.20;;;;;;4954645;28;20043;-71
2021/04/09 10:42:02;;;;;;;11.52;2.55;;;14.90;87.30;;;;;;4953559;29;20047;-71
2021/04/09 10:44:31;;;;;;;7.25;2.10;;;14.70;84.60;;;;;;4952291;29;20043;-71
2021/04/09 10:47:06;;;;;;;6.30;2.67;;;14.60;82.10;;;;;;4935086;29;20051;-71
2021/04/09 10:49:38;;;;;;;12.40;2.83;;;14.80;81.70;;;;;;4935747;29;20044;-71
2021/04/09 10:52:17;;;;;;;5.78;2.40;;;14.20;80.10;;;;;;4945471;28;20044;-71
2021/04/09 10:54:45;;;;;;;11.57;2.67;;;14.00;79.10;;;;;;4951481;29;20523;-71
2021/04/09 10:57:21;;;;;;;8.27;2.42;;;14.00;78.70;;;;;;4962474;28;20042;-71
2021/04/09 10:59:51;;;;;;;7.03;3.05;;;13.80;79.70;;;;;;4973563;28;20099;-71
2021/04/09 11:02:23;;;;;;;6.22;2.60;;;13.50;81.10;;;;;;4967694;28;20043;-71
2021/04/09 11:04:52;;;;;;;5.55;2.53;;;13.20;84.60;;;;;;4950866;28;20050;-71
2021/04/09 11:07:19;;;;;;;7.82;2.58;;;13.00;83.00;;;;;;4951933;28;20564;-71
2021/04/09 11:10:06;;;;;;;5.43;2.40;;;13.20;82.80;;;;;;4953155;29;20494;-71
2021/04/09 11:12:32;;;;;;;11.05;3.17;;;13.40;82.40;;;;;;4952347;28;20405;-71
2021/04/09 11:15:10;;;;;;;7.20;2.97;;;13.20;84.70;;;;;;4954156;28;20197;-71
2021/04/09 11:17:39;;;;;;;6.47;2.78;;;13.20;84.20;;;;;;4952552;29;20062;-71
2021/04/09 11:20:23;;;;;;;4.80;2.20;;;13.20;84.90;;;;;;4951854;29;20047;-71
2021/04/09 11:23:09;;;;;;;9.38;2.90;;;13.60;82.10;;;;;;4953355;28;20039;-71
2021/04/09 11:25:42;;;;;;;5.88;2.88;;;13.90;85.50;;;;;;4952704;28;20101;-71
2021/04/09 11:28:23;;;;;;;5.22;2.63;;;14.10;83.20;;;;;;4953144;28;20040;-71
2021/04/09 11:31:00;;;;;;;10.75;2.80;;;14.00;81.50;;;;;;4952598;29;20137;-71
2021/04/09 11:33:37;;;;;;;7.82;2.83;;;13.80;81.70;;;;;;4952387;28;20043;-71
2021/04/09 11:36:17;;;;;;;7.70;2.40;;;13.60;83.80;;;;;;4953729;28;20129;-71
2021/04/09 11:38:48;;;;;;;6.60;2.78;;;13.60;81.20;;;;;;4953469;29;20055;-71
2021/04/09 11:41:31;;;;;;;6.45;2.58;;;13.70;80.70;;;;;;4952649;28;20051;-71
2021/04/09 11:43:59;;;;;;;8.10;3.13;;;13.80;79.60;;;;;;4953422;29;20145;-71
2021/04/09 11:46:36;;;;;;;6.20;3.00;;;14.00;82.80;;;;;;4935920;29;20102;-71
2021/04/09 11:49:05;;;;;;;6.13;3.00;;;14.10;81.20;;;;;;4951483;28;20393;-71
2021/04/09 11:51:35;;;;;;;6.47;2.92;;;14.20;83.10;;;;;;4952679;28;20045;-71
2021/04/09 11:54:10;;;;;;;6.35;2.63;;;14.40;80.20;;;;;;4952844;29;20071;-71
2021/04/09 11:56:37;;;;;;;6.10;2.83;;;14.30;80.20;;;;;;4938798;28;20035;-71
2021/04/09 11:59:21;;;;;;;5.32;2.50;;;14.20;79.90;;;;;;4968451;28;20400;-71
2021/04/09 12:01:49;;;;;;;9.07;2.30;;;14.50;78.40;;;;;;4951561;29;20094;-71
2021/04/09 12:04:37;;;;;;;9.65;2.70;;;14.70;79.20;;;;;;4949376;29;20419;-71
2021/04/09 12:07:26;;;;;;;7.35;2.45;;;14.80;78.60;;;;;;4952079;29;20061;-71
2021/04/09 12:09:57;;;;;;;5.88;2.15;;;14.80;79.20;;;;;;4951709;29;20433;-71
2021/04/09 12:12:25;;;;;;;7.47;2.58;;;14.70;77.50;;;;;;4952891;29;20449;-71
2021/04/09 12:14:56;;;;;;;7.78;2.10;;;14.60;74.70;;;;;;4933677;29;20127;-71
2021/04/09 12:17:24;;;;;;;4.93;2.30;;;14.50;78.60;;;;;;4916917;29;20043;-71
2021/04/09 12:19:53;;;;;;;5.90;2.50;;;14.40;78.70;;;;;;4936672;28;20039;-71
2021/04/09 12:22:19;;;;;;;6.55;2.72;;;14.60;78.40;;;;;;4948366;29;20047;-71
2021/04/09 12:24:46;;;;;;;6.50;2.40;;;14.80;78.60;;;;;;4952664;28;20511;-71
2021/04/09 12:27:15;;;;;;;14.70;2.17;;;14.90;76.20;;;;;;4952229;29;20078;-71
2021/04/09 12:29:41;;;;;;;10.32;2.38;;;14.90;76.50;;;;;;4952834;28;20043;-71
2021/04/09 12:32:08;;;;;;;7.93;2.50;;;14.80;75.80;;;;;;4952398;28;20051;-71
2021/04/09 12:34:35;;;;;;;11.77;2.97;;;14.70;75.90;;;;;;4950833;28;20094;-71
2021/04/09 12:37:22;;;;;;;9.80;2.47;;;15.00;75.70;;;;;;4946263;28;20051;-71
2021/04/09 12:39:48;;;;;;;8.07;2.70;;;15.00;74.30;;;;;;4951083;28;20057;-71
2021/04/09 12:42:15;;;;;;;7.75;2.40;;;14.80;74.70;;;;;;4951261;29;20269;-71
2021/04/09 12:44:41;;;;;;;6.68;2.42;;;14.60;74.80;;;;;;4951409;28;20047;-71
2021/04/09 12:47:09;;;;;;;6.28;2.55;;;14.60;74.60;;;;;;4934410;29;20042;-71
2021/04/09 12:49:36;;;;;;;7.90;2.15;;;14.70;74.90;;;;;;4952598;28;20121;-71
2021/04/09 12:52:04;;;;;;;5.93;2.35;;;14.60;74.20;;;;;;4951975;28;20467;-71
2021/04/09 12:54:31;;;;;;;10.68;2.38;;;14.80;75.90;;;;;;4950235;28;20047;-72
2021/04/09 12:56:57;;;;;;;5.70;2.20;;;14.70;74.20;;;;;;4955989;28;20054;-71
2021/04/09 12:59:25;;;;;;;10.68;2.63;;;14.90;76.50;;;;;;4955636;28;20058;-71
2021/04/09 13:01:51;;;;;;;5.72;2.25;;;15.00;76.00;;;;;;4949479;28;20050;-71